createdAt,value
2022-09-05T00:01:28.282Z,94780.53
2022-09-05T00:04:25.213Z,94777.41
2022-09-05T00:07:58.350Z,94783.94
2022-09-05T00:10:37.177Z,94788.00
2022-09-05T00:13:10.715Z,94773.88
2022-09-05T00:15:49.462Z,94786.03
2022-09-05T00:22:09.483Z,94772.53
2022-09-05T00:24:28.427Z,94771.50
2022-09-05T00:25:01.024Z,94760.09
2022-09-05T00:27:53.526Z,94770.28
2022-09-05T00:31:50.570Z,94758.16
2022-09-05T00:33:42.894Z,94774.56
2022-09-05T00:36:49.481Z,94780.91
2022-09-05T00:39:38.607Z,94789.13
2022-09-05T00:42:19.343Z,94783.94
2022-09-05T00:44:58.614Z,94796.19
2022-09-05T00:47:35.364Z,94786.97
2022-09-05T00:50:13.177Z,94789.22
2022-09-05T00:53:07.844Z,94789.34
2022-09-05T00:56:04.391Z,94788.34
2022-09-05T00:58:47.668Z,94776.31
2022-09-05T01:01:39.186Z,94774.38
2022-09-05T01:04:24.642Z,94774.84
2022-09-05T01:07:16.675Z,94772.13
2022-09-05T01:09:53.453Z,94771.78
2022-09-05T01:12:29.278Z,94765.16
2022-09-05T01:15:24.166Z,94772.47
2022-09-05T01:17:56.646Z,94766.97
2022-09-05T01:20:44.631Z,94761.72
2022-09-05T01:23:20.519Z,94762.28
2022-09-05T01:26:05.295Z,94772.53
2022-09-05T01:29:16.852Z,94766.59
2022-09-05T01:31:56.900Z,94753.56
2022-09-05T01:34:32.600Z,94765.47
2022-09-05T01:37:32.907Z,94763.44
2022-09-05T01:40:21.130Z,94775.50
2022-09-05T01:43:06.626Z,94779.31
2022-09-05T01:45:48.794Z,94771.75
2022-09-05T01:48:17.368Z,94769.19
2022-09-05T01:50:59.319Z,94775.81
2022-09-05T01:53:55.621Z,94773.22
2022-09-05T01:56:33.682Z,94773.34
2022-09-05T01:59:19.287Z,94775.81
2022-09-05T02:01:58.180Z,94780.44
2022-09-05T02:04:46.671Z,94775.81
2022-09-05T02:07:31.884Z,94772.22
2022-09-05T02:10:36.119Z,94781.09
2022-09-05T02:13:17.602Z,94774.47
2022-09-05T02:16:00.468Z,94774.00
2022-09-05T02:18:36.529Z,94770.09
2022-09-05T02:21:11.615Z,94766.47
2022-09-05T02:23:47.892Z,94767.72
2022-09-05T02:26:32.180Z,94765.34
2022-09-05T02:29:05.506Z,94756.63
2022-09-05T02:31:42.040Z,94759.78
2022-09-05T02:34:11.742Z,94751.91
2022-09-05T02:36:45.518Z,94750.78
2022-09-05T02:45:02.533Z,94740.22
2022-09-05T02:45:14.817Z,94741.66
2022-09-05T02:45:50.865Z,94749.53
2022-09-05T02:48:26.661Z,94747.97
2022-09-05T02:57:24.731Z,94751.00
2022-09-05T02:57:40.977Z,94740.78
2022-09-05T02:58:05.991Z,94745.50
2022-09-05T03:00:21.277Z,94737.63
2022-09-05T03:02:57.004Z,94748.41
2022-09-05T03:05:33.601Z,94733.50
2022-09-05T03:08:06.286Z,94752.03
2022-09-05T03:11:12.165Z,94742.38
2022-09-05T03:14:18.070Z,94753.34
2022-09-05T03:17:09.451Z,94745.59
2022-09-05T03:19:54.371Z,94744.03
2022-09-05T03:22:58.715Z,94742.34
2022-09-05T03:25:37.531Z,94742.59
2022-09-05T03:28:51.206Z,94744.69
2022-09-05T03:31:42.872Z,94743.09
2022-09-05T03:34:27.646Z,94738.06
2022-09-05T03:36:54.298Z,94741.06
2022-09-05T03:39:51.630Z,94743.00
2022-09-05T03:42:30.914Z,94745.22
2022-09-05T03:45:04.666Z,94734.66
2022-09-05T03:48:28.561Z,94748.81
2022-09-05T03:54:43.444Z,94751.06
2022-09-05T03:57:11.565Z,94750.63
2022-09-05T03:57:32.375Z,94747.59
2022-09-05T04:00:10.281Z,94753.75
2022-09-05T04:08:08.589Z,94751.84
2022-09-05T04:08:23.603Z,94746.88
2022-09-05T04:09:09.837Z,94750.72
2022-09-05T04:11:41.897Z,94747.59
2022-09-05T04:14:40.958Z,94746.88
2022-09-05T04:17:20.117Z,94743.00
2022-09-05T04:20:02.733Z,94743.00
2022-09-05T04:23:07.146Z,94748.03
2022-09-05T04:25:39.699Z,94756.00
2022-09-05T04:28:32.020Z,94751.03
2022-09-05T04:31:10.490Z,94760.09
2022-09-05T04:34:04.345Z,94757.06
2022-09-05T04:36:34.583Z,94754.19
2022-09-05T04:39:19.651Z,94760.47
2022-09-05T04:41:54.599Z,94768.22
2022-09-05T04:44:33.543Z,94758.13
2022-09-05T04:47:10.416Z,94765.06
2022-09-05T04:49:43.380Z,94781.03
2022-09-05T04:52:29.416Z,94775.97
2022-09-05T04:55:27.328Z,94786.50
2022-09-05T04:58:11.011Z,94783.94
2022-09-05T05:06:01.554Z,94792.34
2022-09-05T05:06:10.309Z,94775.47
2022-09-05T05:06:47.413Z,94792.13
2022-09-05T05:10:41.821Z,94800.91
2022-09-05T05:17:59.776Z,94795.59
2022-09-05T05:18:01.025Z,94808.00
2022-09-05T05:19:18.707Z,94808.84
2022-09-05T05:21:55.666Z,94809.41
2022-09-05T05:24:26.405Z,94812.81
2022-09-05T05:27:11.795Z,94808.53
2022-09-05T05:29:58.444Z,94811.09
2022-09-05T05:32:45.456Z,94814.91
2022-09-05T05:35:24.638Z,94812.19
2022-09-05T05:38:10.960Z,94805.09
2022-09-05T05:40:43.630Z,94809.91
2022-09-05T05:43:25.907Z,94816.63
2022-09-05T05:46:00.616Z,94813.28
2022-09-05T05:48:33.452Z,94815.88
2022-09-05T05:51:07.768Z,94817.13
2022-09-05T05:54:18.878Z,94819.66
2022-09-05T05:57:00.279Z,94819.91
2022-09-05T06:00:01.947Z,94822.22
2022-09-05T06:03:10.018Z,94824.66
2022-09-05T06:06:07.243Z,94826.09
2022-09-05T06:14:48.125Z,94818.63
2022-09-05T06:15:02.640Z,94817.06
2022-09-05T06:15:12.067Z,94812.38
2022-09-05T06:17:55.473Z,94817.72
2022-09-05T06:22:07.594Z,94811.50
2022-09-05T06:23:23.983Z,94816.88
2022-09-05T06:26:29.993Z,94815.66
2022-09-05T06:29:12.763Z,94810.72
2022-09-05T06:32:02.385Z,94807.19
2022-09-05T06:34:41.280Z,94816.69
2022-09-05T06:37:35.486Z,94819.25
2022-09-05T06:40:19.710Z,94812.56
2022-09-05T06:43:16.429Z,94810.72
2022-09-05T06:45:59.038Z,94822.59
2022-09-05T06:48:44.493Z,94822.44
2022-09-05T06:51:44.187Z,94819.97
2022-09-05T06:54:27.141Z,94827.19
2022-09-05T06:57:40.012Z,94824.03
2022-09-05T07:00:24.798Z,94830.75
2022-09-05T07:03:15.989Z,94828.72
2022-09-05T07:06:07.604Z,94838.25
2022-09-05T07:08:54.056Z,94827.66
2022-09-05T07:11:25.707Z,94828.75
2022-09-05T07:13:57.720Z,94833.44
2022-09-05T07:16:39.717Z,94843.59
2022-09-05T07:19:10.227Z,94848.16
2022-09-05T07:21:52.523Z,94845.59
2022-09-05T07:24:54.311Z,94840.75
2022-09-05T07:27:25.356Z,94845.63
2022-09-05T07:30:01.027Z,94846.25
2022-09-05T07:32:42.758Z,94845.31
2022-09-05T07:35:19.841Z,94849.28
2022-09-05T07:37:53.451Z,94844.34
2022-09-05T07:40:26.359Z,94851.66
2022-09-05T07:43:10.096Z,94851.03
2022-09-05T07:45:55.319Z,94849.50
2022-09-05T07:48:35.005Z,94846.56
2022-09-05T07:55:26.202Z,94850.44
2022-09-05T07:57:05.033Z,94848.78
2022-09-05T08:00:03.454Z,94854.34
2022-09-05T08:02:51.439Z,94847.00
2022-09-05T08:05:26.022Z,94849.03
2022-09-05T08:08:08.550Z,94845.81
2022-09-05T08:11:24.430Z,94846.97
2022-09-05T08:13:49.669Z,94849.28
2022-09-05T08:16:21.625Z,94838.34
2022-09-05T08:18:54.394Z,94840.69
2022-09-05T08:21:46.333Z,94841.78
2022-09-05T08:24:25.083Z,94846.47
2022-09-05T08:26:59.375Z,94836.91
2022-09-05T08:29:31.992Z,94843.69
2022-09-05T08:32:12.074Z,94841.72
2022-09-05T08:34:45.385Z,94842.94
2022-09-05T08:37:21.239Z,94834.78
2022-09-05T08:39:57.487Z,94832.56
2022-09-05T08:46:06.193Z,94838.78
2022-09-05T08:46:47.821Z,94841.06
2022-09-05T08:48:49.246Z,94844.28
2022-09-05T08:51:26.544Z,94841.16
2022-09-05T08:54:18.387Z,94837.28
2022-09-05T08:56:48.036Z,94836.50
2022-09-05T08:59:45.779Z,94838.88
2022-09-05T09:02:50.936Z,94836.81
2022-09-05T09:05:59.404Z,94830.88
2022-09-05T09:08:50.838Z,94839.19
2022-09-05T09:11:41.519Z,94831.75
2022-09-05T09:14:31.362Z,94844.16
2022-09-05T09:17:16.097Z,94840.88
2022-09-05T09:19:48.890Z,94845.16
2022-09-05T09:22:36.772Z,94838.13
2022-09-05T09:25:14.600Z,94840.06
2022-09-05T09:28:45.224Z,94838.38
2022-09-05T09:31:09.975Z,94840.00
2022-09-05T09:33:55.589Z,94831.34
2022-09-05T09:36:22.309Z,94836.56
2022-09-05T09:39:37.598Z,94827.28
2022-09-05T09:42:32.652Z,94821.84
2022-09-05T09:45:28.355Z,94824.47
2022-09-05T09:48:11.049Z,94822.78
2022-09-05T09:51:06.283Z,94826.25
2022-09-05T09:54:05.383Z,94816.91
2022-09-05T09:56:56.960Z,94810.59
2022-09-05T09:59:54.145Z,94821.34
2022-09-05T10:03:56.565Z,94816.66
2022-09-05T10:10:52.847Z,94815.59
2022-09-05T10:10:57.331Z,94827.63
2022-09-05T10:11:56.134Z,94815.91
2022-09-05T10:14:52.924Z,94820.88
2022-09-05T10:17:22.736Z,94809.44
2022-09-05T10:20:24.029Z,94807.81
2022-09-05T10:23:15.544Z,94813.94
2022-09-05T10:26:17.125Z,94800.06
2022-09-05T10:29:11.727Z,94800.69
2022-09-05T10:34:35.769Z,94803.97
2022-09-05T10:35:21.015Z,94808.94
2022-09-05T10:37:55.010Z,94798.66
2022-09-05T10:40:24.308Z,94787.41
2022-09-05T10:43:03.097Z,94787.25
2022-09-05T10:45:49.484Z,94791.78
2022-09-05T10:48:24.805Z,94788.16
2022-09-05T10:51:00.760Z,94786.84
2022-09-05T10:53:45.955Z,94789.03
2022-09-05T10:56:23.472Z,94788.97
2022-09-05T11:01:12.737Z,94785.91
2022-09-05T11:02:28.058Z,94778.63
2022-09-05T11:05:03.321Z,94793.78
2022-09-05T11:07:36.354Z,94781.69
2022-09-05T11:10:20.398Z,94783.09
2022-09-05T11:13:14.376Z,94786.56
2022-09-05T11:16:04.275Z,94770.19
2022-09-05T11:18:57.651Z,94775.69
2022-09-05T11:22:03.967Z,94779.38
2022-09-05T11:24:51.186Z,94776.19
2022-09-05T11:27:31.418Z,94775.00
2022-09-05T11:30:30.285Z,94771.47
2022-09-05T11:39:57.724Z,94777.09
2022-09-05T11:39:58.915Z,94774.66
2022-09-05T11:40:31.020Z,94767.03
2022-09-05T11:43:09.758Z,94753.44
2022-09-05T11:45:43.062Z,94761.03
2022-09-05T11:48:57.490Z,94758.19
2022-09-05T11:51:28.324Z,94765.25
2022-09-05T11:54:33.221Z,94767.56
2022-09-05T11:57:56.882Z,94758.97
2022-09-05T12:00:46.754Z,94769.59
2022-09-05T12:03:58.174Z,94762.59
2022-09-05T12:06:14.907Z,94769.56
2022-09-05T12:08:54.969Z,94758.19
2022-09-05T12:11:25.221Z,94757.56
2022-09-05T12:14:21.389Z,94755.13
2022-09-05T12:16:55.399Z,94749.03
2022-09-05T12:19:28.093Z,94754.31
2022-09-05T12:22:18.624Z,94737.03
2022-09-05T12:25:26.606Z,94735.56
2022-09-05T12:28:15.247Z,94725.84
2022-09-05T12:30:57.113Z,94733.72
2022-09-05T12:36:05.068Z,94739.72
2022-09-05T12:40:43.517Z,94740.56
2022-09-05T12:41:33.000Z,94732.34
2022-09-05T12:44:34.635Z,94737.75
2022-09-05T12:45:46.119Z,94729.16
2022-09-05T12:48:38.825Z,94738.44
2022-09-05T12:51:47.106Z,94725.84
2022-09-05T12:54:33.331Z,94724.25
2022-09-05T13:01:53.139Z,94721.00
2022-09-05T13:03:07.313Z,94715.78
2022-09-05T13:03:27.064Z,94710.59
2022-09-05T13:06:02.022Z,94717.91
2022-09-05T13:08:44.037Z,94716.66
2022-09-05T13:14:55.596Z,94708.53
2022-09-05T13:15:02.310Z,94695.22
2022-09-05T13:17:16.692Z,94692.81
2022-09-05T13:19:51.396Z,94694.38
2022-09-05T13:22:24.445Z,94691.03
2022-09-05T13:25:03.071Z,94694.97
2022-09-05T13:27:39.521Z,94692.28
2022-09-05T13:33:24.013Z,94684.16
2022-09-05T13:38:00.574Z,94694.75
2022-09-05T13:38:10.165Z,94684.00
2022-09-05T13:39:06.840Z,94687.03
2022-09-05T13:41:48.788Z,94677.19
2022-09-05T13:44:26.723Z,94678.81
2022-09-05T13:47:29.870Z,94671.00
2022-09-05T13:50:27.115Z,94675.09
2022-09-05T13:52:58.996Z,94663.59
2022-09-05T13:55:46.345Z,94669.50
2022-09-05T13:58:42.919Z,94670.91
2022-09-05T14:02:25.520Z,94669.22
2022-09-05T14:05:17.889Z,94656.81
2022-09-05T14:08:16.831Z,94640.03
2022-09-05T14:11:11.048Z,94649.06
2022-09-05T14:13:49.523Z,94638.91
2022-09-05T14:16:29.404Z,94650.22
2022-09-05T14:19:15.164Z,94645.03
2022-09-05T14:21:44.275Z,94643.13
2022-09-05T14:24:27.688Z,94635.56
2022-09-05T14:27:03.014Z,94628.06
2022-09-05T14:29:46.550Z,94636.22
2022-09-05T14:37:35.955Z,94636.69
2022-09-05T14:37:44.164Z,94636.56
2022-09-05T14:38:24.220Z,94629.19
2022-09-05T14:41:10.183Z,94632.53
2022-09-05T14:43:39.871Z,94620.03
2022-09-05T14:46:33.739Z,94626.66
2022-09-05T14:49:25.748Z,94630.63
2022-09-05T14:51:52.973Z,94631.38
2022-09-05T15:02:45.135Z,94612.97
2022-09-05T15:02:50.083Z,94619.25
2022-09-05T15:03:05.103Z,94624.84
2022-09-05T15:05:45.392Z,94617.53
2022-09-05T15:10:28.257Z,94619.28
2022-09-05T15:12:24.352Z,94616.44
2022-09-05T15:14:06.567Z,94620.41
2022-09-05T15:16:38.672Z,94621.09
2022-09-05T15:19:09.940Z,94614.69
2022-09-05T15:21:40.621Z,94599.09
2022-09-05T15:24:21.534Z,94612.03
2022-09-05T15:26:55.286Z,94607.47
2022-09-05T15:29:36.992Z,94597.91
2022-09-05T15:32:21.541Z,94606.50
2022-09-05T15:34:54.692Z,94598.00
2022-09-05T15:37:36.857Z,94595.75
2022-09-05T15:40:24.023Z,94600.56
2022-09-05T15:42:57.716Z,94595.28
2022-09-05T15:45:37.554Z,94599.28
2022-09-05T15:48:24.000Z,94602.16
2022-09-05T15:50:55.586Z,94596.84
2022-09-05T15:53:26.271Z,94596.84
2022-09-05T15:56:00.033Z,94584.66
2022-09-05T15:58:27.595Z,94588.56
2022-09-05T16:01:48.628Z,94588.63
2022-09-05T16:10:29.160Z,94581.22
2022-09-05T16:10:30.984Z,94586.72
2022-09-05T16:10:49.543Z,94596.94
2022-09-05T16:12:48.860Z,94592.00
2022-09-05T16:19:58.198Z,94583.47
2022-09-05T16:23:17.853Z,94587.41
2022-09-05T16:23:33.137Z,94584.41
2022-09-05T16:24:57.984Z,94588.03
2022-09-05T16:27:36.215Z,94587.34
2022-09-05T16:30:15.697Z,94593.88
2022-09-05T16:32:46.528Z,94589.25
2022-09-05T16:35:26.367Z,94585.06
2022-09-05T16:38:08.385Z,94589.47
2022-09-05T16:40:40.810Z,94576.19
2022-09-05T16:43:24.252Z,94578.25
2022-09-05T16:46:07.043Z,94576.47
2022-09-05T16:48:55.598Z,94570.66
2022-09-05T16:51:52.897Z,94574.72
2022-09-05T16:54:34.909Z,94572.88
2022-09-05T16:57:10.895Z,94566.66
2022-09-05T16:59:41.710Z,94570.19
2022-09-05T17:02:28.842Z,94551.84
2022-09-05T17:06:00.531Z,94563.63
2022-09-05T17:08:30.121Z,94561.75
2022-09-05T17:11:12.161Z,94566.00
2022-09-05T17:13:56.217Z,94556.28
2022-09-05T17:16:47.502Z,94552.09
2022-09-05T17:19:22.185Z,94550.66
2022-09-05T17:25:14.068Z,94557.03
2022-09-05T17:29:28.937Z,94549.69
2022-09-05T17:29:45.743Z,94558.00
2022-09-05T17:33:44.936Z,94559.66
2022-09-05T17:36:21.079Z,94554.59
2022-09-05T17:39:44.585Z,94561.38
2022-09-05T17:42:36.967Z,94554.78
2022-09-05T17:45:12.972Z,94552.22
2022-09-05T17:47:50.057Z,94560.44
2022-09-05T17:50:44.235Z,94551.16
2022-09-05T17:53:26.269Z,94554.75
2022-09-05T17:55:55.101Z,94563.03
2022-09-05T17:58:28.244Z,94554.91
2022-09-05T18:01:26.843Z,94563.94
2022-09-05T18:04:16.633Z,94563.63
2022-09-05T18:06:52.820Z,94573.03
2022-09-05T18:09:40.049Z,94568.75
2022-09-05T18:12:37.966Z,94569.97
2022-09-05T18:15:26.447Z,94570.03
2022-09-05T18:17:53.122Z,94571.25
2022-09-05T18:20:39.517Z,94570.47
2022-09-05T18:23:39.283Z,94572.50
2022-09-05T18:26:21.369Z,94574.06
2022-09-05T18:29:57.424Z,94578.78
2022-09-05T18:32:11.985Z,94576.91
2022-09-05T18:34:41.209Z,94585.16
2022-09-05T18:37:37.463Z,94576.97
2022-09-05T18:40:29.856Z,94581.31
2022-09-05T18:43:10.551Z,94579.41
2022-09-05T18:45:52.809Z,94590.72
2022-09-05T18:48:29.970Z,94575.13
2022-09-05T18:51:15.040Z,94590.72
2022-09-05T18:53:47.616Z,94584.47
2022-09-05T18:56:29.080Z,94592.66
2022-09-05T18:59:34.530Z,94582.13
2022-09-05T19:02:08.990Z,94586.44
2022-09-05T19:05:01.261Z,94590.34
2022-09-05T19:07:39.983Z,94590.34
2022-09-05T19:10:36.255Z,94588.34
2022-09-05T19:13:17.488Z,94586.41
2022-09-05T19:16:42.639Z,94590.28
2022-09-05T19:19:05.844Z,94599.63
2022-09-05T19:21:33.683Z,94588.69
2022-09-05T19:24:07.192Z,94596.13
2022-09-05T19:26:34.538Z,94582.88
2022-09-05T19:36:46.652Z,94583.69
2022-09-05T19:36:56.898Z,94590.69
2022-09-05T19:37:13.894Z,94580.59
2022-09-05T19:37:48.251Z,94585.66
2022-09-05T19:47:00.518Z,94592.28
2022-09-05T19:47:44.714Z,94579.78
2022-09-05T19:47:49.137Z,94580.16
2022-09-05T19:49:10.681Z,94579.72
2022-09-05T19:51:39.142Z,94572.69
2022-09-05T19:54:06.155Z,94565.66
2022-09-05T19:56:45.836Z,94570.72
2022-09-05T19:59:22.487Z,94571.06
2022-09-05T20:01:51.751Z,94565.63
2022-09-05T20:04:20.060Z,94566.41
2022-09-05T20:06:49.515Z,94566.75
2022-09-05T20:09:19.043Z,94558.19
2022-09-05T20:11:58.593Z,94553.13
2022-09-05T20:14:31.424Z,94561.66
2022-09-05T20:17:28.602Z,94551.94
2022-09-05T20:20:08.613Z,94552.34
2022-09-05T20:22:48.893Z,94542.63
2022-09-05T20:25:42.787Z,94546.91
2022-09-05T20:28:13.779Z,94548.47
2022-09-05T20:30:46.858Z,94550.38
2022-09-05T20:33:19.627Z,94548.81
2022-09-05T20:43:07.762Z,94555.38
2022-09-05T20:43:15.404Z,94564.63
2022-09-05T20:43:23.465Z,94561.44
2022-09-05T20:44:25.065Z,94557.88
2022-09-05T20:54:06.213Z,94560.16
2022-09-05T20:54:08.451Z,94559.00
2022-09-05T20:54:14.454Z,94558.56
2022-09-05T20:56:04.657Z,94568.25
2022-09-05T20:58:35.351Z,94562.78
2022-09-05T21:01:19.619Z,94553.78
2022-09-05T21:04:01.074Z,94567.78
2022-09-05T21:06:34.542Z,94557.13
2022-09-05T21:09:25.116Z,94558.22
2022-09-05T21:11:58.727Z,94554.25
2022-09-05T21:14:29.142Z,94558.53
2022-09-05T21:17:08.288Z,94559.31
2022-09-05T21:19:53.396Z,94548.81
2022-09-05T21:22:20.993Z,94567.78
2022-09-05T21:24:48.854Z,94565.75
2022-09-05T21:27:25.769Z,94567.28
2022-09-05T21:29:58.672Z,94548.97
2022-09-05T21:32:36.136Z,94562.13
2022-09-05T21:35:34.635Z,94566.75
2022-09-05T21:37:57.032Z,94564.03
2022-09-05T21:40:23.948Z,94557.31
2022-09-05T21:46:38.655Z,94563.53
2022-09-05T21:47:38.728Z,94556.53
2022-09-05T21:48:28.190Z,94561.09
2022-09-05T21:51:02.482Z,94564.63
2022-09-05T21:57:56.642Z,94563.84
2022-09-05T21:59:29.832Z,94561.44
2022-09-05T22:02:01.388Z,94556.38
2022-09-05T22:04:28.327Z,94552.44
2022-09-05T22:06:58.658Z,94547.75
2022-09-05T22:09:25.756Z,94538.81
2022-09-05T22:11:52.867Z,94546.97
2022-09-05T22:14:21.978Z,94536.44
2022-09-05T22:16:52.137Z,94550.00
2022-09-05T22:19:37.049Z,94543.38
2022-09-05T22:22:16.022Z,94547.94
2022-09-05T22:24:57.040Z,94533.09
2022-09-05T22:27:27.448Z,94514.75
2022-09-05T22:29:55.747Z,94514.84
2022-09-05T22:32:34.117Z,94529.97
2022-09-05T22:35:18.534Z,94520.19
2022-09-05T22:37:59.206Z,94517.38
2022-09-05T22:40:28.793Z,94528.59
2022-09-05T22:42:57.984Z,94530.38
2022-09-05T22:45:26.015Z,94538.44
2022-09-05T22:47:53.195Z,94537.25
2022-09-05T22:50:19.903Z,94528.69
2022-09-05T22:52:46.634Z,94515.44
2022-09-05T22:55:13.414Z,94518.91
2022-09-05T22:57:40.861Z,94527.06
2022-09-05T23:00:08.419Z,94507.97
2022-09-05T23:02:37.858Z,94512.66
2022-09-05T23:05:05.887Z,94521.63
2022-09-05T23:07:32.994Z,94521.94
2022-09-05T23:09:59.758Z,94511.47
2022-09-05T23:12:26.703Z,94505.59
2022-09-05T23:14:53.530Z,94514.50
2022-09-05T23:17:20.172Z,94507.91
2022-09-05T23:19:46.882Z,94515.63
2022-09-05T23:22:13.558Z,94517.25
2022-09-05T23:24:40.309Z,94520.69
2022-09-05T23:27:06.948Z,94524.25
2022-09-05T23:29:33.637Z,94514.91
2022-09-05T23:32:00.284Z,94523.81
2022-09-05T23:34:26.977Z,94514.03
2022-09-05T23:36:53.655Z,94509.34
2022-09-05T23:39:20.336Z,94504.66
2022-09-05T23:41:46.988Z,94512.31
2022-09-05T23:44:13.679Z,94504.88
2022-09-05T23:46:40.493Z,94506.03
2022-09-05T23:49:07.338Z,94512.59
2022-09-05T23:51:34.059Z,94506.22
2022-09-05T23:54:00.718Z,94506.59
2022-09-05T23:56:27.389Z,94515.81
2022-09-05T23:58:54.353Z,94513.75
